sensor_id;sensor_type;location;lat;lon;timestamp;temperature;humidity
19906;DHT22;10115;50.906;4.438;2023-04-10T00:01:48;10.20;99.90
19906;DHT22;10115;50.906;4.438;2023-04-10T00:04:14;10.20;99.90
19906;DHT22;10115;50.906;4.438;2023-04-10T00:06:40;10.30;99.90
19906;DHT22;10115;50.906;4.438;2023-04-10T00:09:06;10.30;99.90
19906;DHT22;10115;50.906;4.438;2023-04-10T00:11:32;10.40;99.90
19906;DHT22;10115;50.906;4.438;2023-04-10T00:13:58;10.40;99.90
19906;DHT22;10115;50.906;4.438;2023-04-10T00:16:24;10.40;99.90
19906;DHT22;10115;50.906;4.438;2023-04-10T00:18:50;10.30;99.90
19906;DHT22;10115;50.906;4.438;2023-04-10T00:21:15;10.70;99.90
19906;DHT22;10115;50.906;4.438;2023-04-10T00:23:41;10.70;99.90
19906;DHT22;10115;50.906;4.438;2023-04-10T00:26:07;10.60;99.90
19906;DHT22;10115;50.906;4.438;2023-04-10T00:28:33;10.50;99.90
19906;DHT22;10115;50.906;4.438;2023-04-10T00:31:04;10.40;99.90
19906;DHT22;10115;50.906;4.438;2023-04-10T00:33:30;10.30;99.90
19906;DHT22;10115;50.906;4.438;2023-04-10T00:35:58;10.40;99.90
19906;DHT22;10115;50.906;4.438;2023-04-10T00:38:23;10.40;99.90
19906;DHT22;10115;50.906;4.438;2023-04-10T00:40:51;10.30;99.90
19906;DHT22;10115;50.906;4.438;2023-04-10T00:43:17;10.30;99.90
19906;DHT22;10115;50.906;4.438;2023-04-10T00:45:45;10.30;99.90
19906;DHT22;10115;50.906;4.438;2023-04-10T00:48:13;10.10;99.90
19906;DHT22;10115;50.906;4.438;2023-04-10T00:50:39;10.10;99.90
19906;DHT22;10115;50.906;4.438;2023-04-10T00:53:16;9.90;99.90
19906;DHT22;10115;50.906;4.438;2023-04-10T00:55:48;10.00;99.90
19906;DHT22;10115;50.906;4.438;2023-04-10T00:58:25;10.00;99.90
19906;DHT22;10115;50.906;4.438;2023-04-10T01:00:51;9.90;99.90
19906;DHT22;10115;50.906;4.438;2023-04-10T01:03:24;9.90;99.90
19906;DHT22;10115;50.906;4.438;2023-04-10T01:06:07;10.00;99.90
19906;DHT22;10115;50.906;4.438;2023-04-10T01:09:00;9.90;99.90
19906;DHT22;10115;50.906;4.438;2023-04-10T01:17:27;9.90;99.90
19906;DHT22;10115;50.906;4.438;2023-04-10T01:20:06;10.00;99.90
19906;DHT22;10115;50.906;4.438;2023-04-10T01:23:05;9.90;99.90
19906;DHT22;10115;50.906;4.438;2023-04-10T01:25:55;10.00;99.90
19906;DHT22;10115;50.906;4.438;2023-04-10T01:28:28;10.00;99.90
19906;DHT22;10115;50.906;4.438;2023-04-10T01:31:15;9.90;99.90
19906;DHT22;10115;50.906;4.438;2023-04-10T01:34:05;9.90;99.90
19906;DHT22;10115;50.906;4.438;2023-04-10T01:36:46;9.90;99.90
19906;DHT22;10115;50.906;4.438;2023-04-10T01:39:18;9.90;99.90
19906;DHT22;10115;50.906;4.438;2023-04-10T01:41:45;10.00;99.90
19906;DHT22;10115;50.906;4.438;2023-04-10T01:44:14;10.00;99.90
19906;DHT22;10115;50.906;4.438;2023-04-10T01:46:41;10.10;99.90
19906;DHT22;10115;50.906;4.438;2023-04-10T01:49:08;10.00;99.90
19906;DHT22;10115;50.906;4.438;2023-04-10T01:51:35;10.10;99.90
19906;DHT22;10115;50.906;4.438;2023-04-10T01:54:04;10.10;99.90
19906;DHT22;10115;50.906;4.438;2023-04-10T01:56:31;10.20;99.90
19906;DHT22;10115;50.906;4.438;2023-04-10T01:58:58;10.30;99.90
19906;DHT22;10115;50.906;4.438;2023-04-10T02:01:24;10.20;99.90
19906;DHT22;10115;50.906;4.438;2023-04-10T02:03:51;10.20;99.90
19906;DHT22;10115;50.906;4.438;2023-04-10T02:06:42;10.20;99.90
19906;DHT22;10115;50.906;4.438;2023-04-10T02:09:27;10.20;99.90
19906;DHT22;10115;50.906;4.438;2023-04-10T02:12:04;10.20;99.90
19906;DHT22;10115;50.906;4.438;2023-04-10T02:14:31;10.20;99.90
19906;DHT22;10115;50.906;4.438;2023-04-10T02:17:00;10.20;99.90
19906;DHT22;10115;50.906;4.438;2023-04-10T02:19:26;10.30;99.90
19906;DHT22;10115;50.906;4.438;2023-04-10T02:21:53;10.30;99.90
19906;DHT22;10115;50.906;4.438;2023-04-10T02:24:19;10.20;99.90
19906;DHT22;10115;50.906;4.438;2023-04-10T02:26:47;10.30;99.90
19906;DHT22;10115;50.906;4.438;2023-04-10T02:29:13;10.20;99.90
19906;DHT22;10115;50.906;4.438;2023-04-10T02:31:39;10.20;99.90
19906;DHT22;10115;50.906;4.438;2023-04-10T02:34:05;10.10;99.90
19906;DHT22;10115;50.906;4.438;2023-04-10T02:36:31;10.20;99.90
19906;DHT22;10115;50.906;4.438;2023-04-10T02:38:57;10.20;99.90
19906;DHT22;10115;50.906;4.438;2023-04-10T02:41:23;10.30;99.90
19906;DHT22;10115;50.906;4.438;2023-04-10T02:43:48;10.30;99.90
19906;DHT22;10115;50.906;4.438;2023-04-10T02:46:14;10.20;99.90
19906;DHT22;10115;50.906;4.438;2023-04-10T02:48:40;10.00;99.90
19906;DHT22;10115;50.906;4.438;2023-04-10T02:51:06;10.00;99.90
19906;DHT22;10115;50.906;4.438;2023-04-10T02:53:32;9.90;99.90
19906;DHT22;10115;50.906;4.438;2023-04-10T02:55:58;9.80;99.90
19906;DHT22;10115;50.906;4.438;2023-04-10T02:58:24;9.80;99.90
19906;DHT22;10115;50.906;4.438;2023-04-10T03:00:50;9.80;99.90
19906;DHT22;10115;50.906;4.438;2023-04-10T03:03:17;9.80;99.90
19906;DHT22;10115;50.906;4.438;2023-04-10T03:05:44;9.80;99.90
19906;DHT22;10115;50.906;4.438;2023-04-10T03:08:12;9.80;99.90
19906;DHT22;10115;50.906;4.438;2023-04-10T03:10:38;9.80;99.90
19906;DHT22;10115;50.906;4.438;2023-04-10T03:13:03;9.80;99.90
19906;DHT22;10115;50.906;4.438;2023-04-10T03:15:30;9.80;99.90
19906;DHT22;10115;50.906;4.438;2023-04-10T03:17:56;9.70;99.90
19906;DHT22;10115;50.906;4.438;2023-04-10T03:20:22;9.70;99.90
19906;DHT22;10115;50.906;4.438;2023-04-10T03:22:47;9.60;99.90
19906;DHT22;10115;50.906;4.438;2023-04-10T03:25:13;9.80;99.90
19906;DHT22;10115;50.906;4.438;2023-04-10T03:27:39;9.80;99.90
19906;DHT22;10115;50.906;4.438;2023-04-10T03:30:05;9.70;99.90
19906;DHT22;10115;50.906;4.438;2023-04-10T03:32:31;9.70;99.90
19906;DHT22;10115;50.906;4.438;2023-04-10T03:34:57;9.70;99.90
19906;DHT22;10115;50.906;4.438;2023-04-10T03:37:23;9.70;99.90
19906;DHT22;10115;50.906;4.438;2023-04-10T03:39:51;9.70;99.90
19906;DHT22;10115;50.906;4.438;2023-04-10T03:42:17;9.70;99.90
19906;DHT22;10115;50.906;4.438;2023-04-10T03:44:43;9.80;99.90
19906;DHT22;10115;50.906;4.438;2023-04-10T03:47:08;9.70;99.90
19906;DHT22;10115;50.906;4.438;2023-04-10T03:49:34;9.60;99.90
19906;DHT22;10115;50.906;4.438;2023-04-10T03:52:00;9.50;99.90
19906;DHT22;10115;50.906;4.438;2023-04-10T03:54:25;9.40;99.90
19906;DHT22;10115;50.906;4.438;2023-04-10T03:56:51;9.40;99.90
19906;DHT22;10115;50.906;4.438;2023-04-10T03:59:16;9.40;99.90
19906;DHT22;10115;50.906;4.438;2023-04-10T04:01:42;9.40;99.90
19906;DHT22;10115;50.906;4.438;2023-04-10T04:04:08;9.40;99.90
19906;DHT22;10115;50.906;4.438;2023-04-10T04:06:34;9.40;99.90
19906;DHT22;10115;50.906;4.438;2023-04-10T04:08:59;9.30;99.90
19906;DHT22;10115;50.906;4.438;2023-04-10T04:11:25;9.30;99.90
19906;DHT22;10115;50.906;4.438;2023-04-10T04:13:52;9.30;99.90
19906;DHT22;10115;50.906;4.438;2023-04-10T04:16:17;9.20;99.90
19906;DHT22;10115;50.906;4.438;2023-04-10T04:18:43;9.20;99.90
19906;DHT22;10115;50.906;4.438;2023-04-10T04:21:09;9.10;99.90
19906;DHT22;10115;50.906;4.438;2023-04-10T04:23:34;9.10;99.90
19906;DHT22;10115;50.906;4.438;2023-04-10T04:26:00;9.00;99.90
19906;DHT22;10115;50.906;4.438;2023-04-10T04:28:26;8.90;99.90
19906;DHT22;10115;50.906;4.438;2023-04-10T04:30:51;8.90;99.90
19906;DHT22;10115;50.906;4.438;2023-04-10T04:33:17;8.80;99.90
19906;DHT22;10115;50.906;4.438;2023-04-10T04:35:43;8.90;99.90
19906;DHT22;10115;50.906;4.438;2023-04-10T04:38:08;8.90;99.90
19906;DHT22;10115;50.906;4.438;2023-04-10T04:40:34;9.00;99.90
19906;DHT22;10115;50.906;4.438;2023-04-10T04:42:59;9.00;99.90
19906;DHT22;10115;50.906;4.438;2023-04-10T04:45:25;8.90;99.90
19906;DHT22;10115;50.906;4.438;2023-04-10T04:47:51;8.90;99.90
19906;DHT22;10115;50.906;4.438;2023-04-10T04:50:16;8.90;99.90
19906;DHT22;10115;50.906;4.438;2023-04-10T04:52:43;9.00;99.90
19906;DHT22;10115;50.906;4.438;2023-04-10T04:55:09;9.00;99.90
19906;DHT22;10115;50.906;4.438;2023-04-10T04:57:34;8.90;99.90
19906;DHT22;10115;50.906;4.438;2023-04-10T05:00:00;8.90;99.90
19906;DHT22;10115;50.906;4.438;2023-04-10T05:02:26;8.90;99.90
19906;DHT22;10115;50.906;4.438;2023-04-10T05:04:51;9.10;99.90
19906;DHT22;10115;50.906;4.438;2023-04-10T05:07:17;9.20;99.90
19906;DHT22;10115;50.906;4.438;2023-04-10T05:09:42;9.20;99.90
19906;DHT22;10115;50.906;4.438;2023-04-10T05:12:08;9.20;99.90
19906;DHT22;10115;50.906;4.438;2023-04-10T05:14:34;9.20;99.90
19906;DHT22;10115;50.906;4.438;2023-04-10T05:17:00;9.20;99.90
19906;DHT22;10115;50.906;4.438;2023-04-10T05:19:25;9.30;99.90
19906;DHT22;10115;50.906;4.438;2023-04-10T05:21:51;9.20;99.90
19906;DHT22;10115;50.906;4.438;2023-04-10T05:24:16;9.30;99.90
19906;DHT22;10115;50.906;4.438;2023-04-10T05:26:42;9.30;99.90
19906;DHT22;10115;50.906;4.438;2023-04-10T05:29:08;9.50;99.90
19906;DHT22;10115;50.906;4.438;2023-04-10T05:31:33;9.60;99.90
19906;DHT22;10115;50.906;4.438;2023-04-10T05:33:59;9.70;99.90
19906;DHT22;10115;50.906;4.438;2023-04-10T05:36:25;9.80;99.90
19906;DHT22;10115;50.906;4.438;2023-04-10T05:38:51;9.90;99.90
19906;DHT22;10115;50.906;4.438;2023-04-10T05:41:16;9.80;99.90
19906;DHT22;10115;50.906;4.438;2023-04-10T05:43:42;9.80;99.90
19906;DHT22;10115;50.906;4.438;2023-04-10T05:46:07;9.90;99.90
19906;DHT22;10115;50.906;4.438;2023-04-10T05:48:33;10.00;99.90
19906;DHT22;10115;50.906;4.438;2023-04-10T05:50:59;10.20;99.90
19906;DHT22;10115;50.906;4.438;2023-04-10T05:53:28;10.20;99.90
19906;DHT22;10115;50.906;4.438;2023-04-10T05:55:57;10.40;99.90
19906;DHT22;10115;50.906;4.438;2023-04-10T05:58:27;10.40;99.90
19906;DHT22;10115;50.906;4.438;2023-04-10T06:00:54;10.50;99.90
19906;DHT22;10115;50.906;4.438;2023-04-10T06:03:20;10.60;99.90
19906;DHT22;10115;50.906;4.438;2023-04-10T06:05:46;10.50;99.90
19906;DHT22;10115;50.906;4.438;2023-04-10T06:08:12;10.60;99.90
19906;DHT22;10115;50.906;4.438;2023-04-10T06:10:38;10.50;99.90
19906;DHT22;10115;50.906;4.438;2023-04-10T06:13:03;10.70;99.90
19906;DHT22;10115;50.906;4.438;2023-04-10T06:15:29;10.80;99.90
19906;DHT22;10115;50.906;4.438;2023-04-10T06:17:55;10.80;99.90
19906;DHT22;10115;50.906;4.438;2023-04-10T06:20:21;10.70;99.90
19906;DHT22;10115;50.906;4.438;2023-04-10T06:22:46;10.60;99.90
19906;DHT22;10115;50.906;4.438;2023-04-10T06:25:12;10.80;99.90
19906;DHT22;10115;50.906;4.438;2023-04-10T06:27:38;10.80;99.90
19906;DHT22;10115;50.906;4.438;2023-04-10T06:30:04;10.80;99.90
19906;DHT22;10115;50.906;4.438;2023-04-10T06:32:30;10.80;99.90
19906;DHT22;10115;50.906;4.438;2023-04-10T06:34:56;10.70;99.90
19906;DHT22;10115;50.906;4.438;2023-04-10T06:37:31;10.70;99.90
19906;DHT22;10115;50.906;4.438;2023-04-10T06:40:12;10.70;99.90
19906;DHT22;10115;50.906;4.438;2023-04-10T06:42:38;10.90;99.90
19906;DHT22;10115;50.906;4.438;2023-04-10T06:45:04;11.00;99.90
19906;DHT22;10115;50.906;4.438;2023-04-10T06:47:30;11.10;99.90
19906;DHT22;10115;50.906;4.438;2023-04-10T06:49:58;11.00;99.90
19906;DHT22;10115;50.906;4.438;2023-04-10T06:52:24;11.00;99.90
19906;DHT22;10115;50.906;4.438;2023-04-10T06:54:50;11.00;99.90
19906;DHT22;10115;50.906;4.438;2023-04-10T06:57:15;10.90;99.90
19906;DHT22;10115;50.906;4.438;2023-04-10T06:59:41;11.00;99.90
19906;DHT22;10115;50.906;4.438;2023-04-10T07:02:07;11.10;99.90
19906;DHT22;10115;50.906;4.438;2023-04-10T07:04:33;11.20;99.90
19906;DHT22;10115;50.906;4.438;2023-04-10T07:06:58;11.40;99.90
19906;DHT22;10115;50.906;4.438;2023-04-10T07:09:25;11.50;99.90
19906;DHT22;10115;50.906;4.438;2023-04-10T07:11:50;11.40;99.90
19906;DHT22;10115;50.906;4.438;2023-04-10T07:14:17;11.50;99.90
19906;DHT22;10115;50.906;4.438;2023-04-10T07:16:42;11.50;99.90
19906;DHT22;10115;50.906;4.438;2023-04-10T07:19:08;11.70;99.90
19906;DHT22;10115;50.906;4.438;2023-04-10T07:21:34;11.80;99.90
19906;DHT22;10115;50.906;4.438;2023-04-10T07:24:00;12.00;99.90
19906;DHT22;10115;50.906;4.438;2023-04-10T07:26:25;11.90;99.90
19906;DHT22;10115;50.906;4.438;2023-04-10T07:28:51;12.10;99.90
19906;DHT22;10115;50.906;4.438;2023-04-10T07:31:17;12.30;99.90
19906;DHT22;10115;50.906;4.438;2023-04-10T07:33:44;12.20;99.90
19906;DHT22;10115;50.906;4.438;2023-04-10T07:36:10;12.10;99.90
19906;DHT22;10115;50.906;4.438;2023-04-10T07:38:35;12.10;99.90
19906;DHT22;10115;50.906;4.438;2023-04-10T07:41:02;12.20;99.90
19906;DHT22;10115;50.906;4.438;2023-04-10T07:43:28;12.10;99.90
19906;DHT22;10115;50.906;4.438;2023-04-10T07:45:55;12.20;99.90
19906;DHT22;10115;50.906;4.438;2023-04-10T07:48:21;12.40;99.90
19906;DHT22;10115;50.906;4.438;2023-04-10T07:50:46;12.50;99.90
19906;DHT22;10115;50.906;4.438;2023-04-10T07:53:12;12.50;99.90
19906;DHT22;10115;50.906;4.438;2023-04-10T07:55:39;12.60;99.90
19906;DHT22;10115;50.906;4.438;2023-04-10T07:58:05;12.50;99.90
19906;DHT22;10115;50.906;4.438;2023-04-10T08:00:31;12.60;99.90
19906;DHT22;10115;50.906;4.438;2023-04-10T08:02:57;12.40;99.90
19906;DHT22;10115;50.906;4.438;2023-04-10T08:05:23;12.30;99.90
19906;DHT22;10115;50.906;4.438;2023-04-10T08:07:48;12.40;99.90
19906;DHT22;10115;50.906;4.438;2023-04-10T08:10:14;12.70;99.90
19906;DHT22;10115;50.906;4.438;2023-04-10T08:12:40;13.20;99.90
19906;DHT22;10115;50.906;4.438;2023-04-10T08:15:06;13.50;99.90
19906;DHT22;10115;50.906;4.438;2023-04-10T08:17:32;13.70;99.90
19906;DHT22;10115;50.906;4.438;2023-04-10T08:19:57;13.80;99.90
19906;DHT22;10115;50.906;4.438;2023-04-10T08:22:23;13.50;99.90
19906;DHT22;10115;50.906;4.438;2023-04-10T08:24:49;13.50;99.90
19906;DHT22;10115;50.906;4.438;2023-04-10T08:27:14;13.40;99.90
19906;DHT22;10115;50.906;4.438;2023-04-10T08:29:41;13.40;99.90
19906;DHT22;10115;50.906;4.438;2023-04-10T08:32:07;13.60;99.90
19906;DHT22;10115;50.906;4.438;2023-04-10T08:34:33;13.90;99.90
19906;DHT22;10115;50.906;4.438;2023-04-10T08:36:59;14.10;99.90
19906;DHT22;10115;50.906;4.438;2023-04-10T08:39:24;14.20;99.90
19906;DHT22;10115;50.906;4.438;2023-04-10T08:41:50;14.20;99.90
19906;DHT22;10115;50.906;4.438;2023-04-10T08:44:16;14.40;99.90
19906;DHT22;10115;50.906;4.438;2023-04-10T08:46:43;14.50;99.90
19906;DHT22;10115;50.906;4.438;2023-04-10T08:49:16;14.60;99.90
19906;DHT22;10115;50.906;4.438;2023-04-10T08:51:45;14.60;99.90
19906;DHT22;10115;50.906;4.438;2023-04-10T08:54:18;14.70;99.90
19906;DHT22;10115;50.906;4.438;2023-04-10T08:56:49;14.70;99.90
19906;DHT22;10115;50.906;4.438;2023-04-10T08:59:16;14.40;99.90
19906;DHT22;10115;50.906;4.438;2023-04-10T09:01:41;14.40;99.90
19906;DHT22;10115;50.906;4.438;2023-04-10T09:04:08;14.50;99.90
19906;DHT22;10115;50.906;4.438;2023-04-10T09:06:35;14.40;99.90
19906;DHT22;10115;50.906;4.438;2023-04-10T09:09:01;14.60;99.90
19906;DHT22;10115;50.906;4.438;2023-04-10T09:14:21;14.60;99.90
19906;DHT22;10115;50.906;4.438;2023-04-10T09:16:51;14.60;99.90
19906;DHT22;10115;50.906;4.438;2023-04-10T09:19:33;14.70;99.90
19906;DHT22;10115;50.906;4.438;2023-04-10T09:21:58;15.20;99.90
19906;DHT22;10115;50.906;4.438;2023-04-10T09:24:25;15.30;99.90
19906;DHT22;10115;50.906;4.438;2023-04-10T09:26:51;15.30;99.90
19906;DHT22;10115;50.906;4.438;2023-04-10T09:29:17;15.40;99.90
19906;DHT22;10115;50.906;4.438;2023-04-10T09:31:43;15.30;99.90
19906;DHT22;10115;50.906;4.438;2023-04-10T09:36:53;15.40;99.90
19906;DHT22;10115;50.906;4.438;2023-04-10T09:39:19;15.00;99.90
19906;DHT22;10115;50.906;4.438;2023-04-10T09:41:51;15.10;99.90
19906;DHT22;10115;50.906;4.438;2023-04-10T09:44:26;15.40;99.90
19906;DHT22;10115;50.906;4.438;2023-04-10T09:46:53;15.20;99.90
19906;DHT22;10115;50.906;4.438;2023-04-10T09:49:19;15.30;99.90
19906;DHT22;10115;50.906;4.438;2023-04-10T09:51:45;15.60;99.90
19906;DHT22;10115;50.906;4.438;2023-04-10T09:54:11;15.60;99.90
19906;DHT22;10115;50.906;4.438;2023-04-10T09:56:38;15.70;99.90
19906;DHT22;10115;50.906;4.438;2023-04-10T09:59:06;15.80;99.90
19906;DHT22;10115;50.906;4.438;2023-04-10T10:01:32;16.10;99.90
19906;DHT22;10115;50.906;4.438;2023-04-10T10:04:02;16.10;99.90
19906;DHT22;10115;50.906;4.438;2023-04-10T10:06:30;16.20;99.90
19906;DHT22;10115;50.906;4.438;2023-04-10T10:09:01;16.50;99.90
19906;DHT22;10115;50.906;4.438;2023-04-10T10:11:28;16.60;99.90
19906;DHT22;10115;50.906;4.438;2023-04-10T10:13:55;16.60;99.90
19906;DHT22;10115;50.906;4.438;2023-04-10T10:21:17;16.70;99.90
19906;DHT22;10115;50.906;4.438;2023-04-10T10:23:46;17.10;99.90
19906;DHT22;10115;50.906;4.438;2023-04-10T10:26:13;17.20;99.90
19906;DHT22;10115;50.906;4.438;2023-04-10T10:28:39;17.30;99.90
19906;DHT22;10115;50.906;4.438;2023-04-10T10:31:06;17.40;99.90
19906;DHT22;10115;50.906;4.438;2023-04-10T10:33:34;17.30;99.90
19906;DHT22;10115;50.906;4.438;2023-04-10T10:36:02;17.40;99.90
19906;DHT22;10115;50.906;4.438;2023-04-10T10:38:29;17.60;99.90
19906;DHT22;10115;50.906;4.438;2023-04-10T10:41:29;17.80;99.90
19906;DHT22;10115;50.906;4.438;2023-04-10T10:44:11;17.70;99.90
19906;DHT22;10115;50.906;4.438;2023-04-10T10:49:59;18.10;99.90
19906;DHT22;10115;50.906;4.438;2023-04-10T10:52:48;17.50;99.90
19906;DHT22;10115;50.906;4.438;2023-04-10T10:55:27;17.80;99.90
19906;DHT22;10115;50.906;4.438;2023-04-10T11:00:21;18.00;99.90
19906;DHT22;10115;50.906;4.438;2023-04-10T11:06:00;18.10;99.90
19906;DHT22;10115;50.906;4.438;2023-04-10T11:11:07;18.40;99.90
19906;DHT22;10115;50.906;4.438;2023-04-10T11:13:37;18.50;99.90
19906;DHT22;10115;50.906;4.438;2023-04-10T11:16:05;18.40;99.90
19906;DHT22;10115;50.906;4.438;2023-04-10T11:21:13;18.70;99.90
19906;DHT22;10115;50.906;4.438;2023-04-10T11:32:05;18.10;99.90
19906;DHT22;10115;50.906;4.438;2023-04-10T11:34:31;17.80;99.90
19906;DHT22;10115;50.906;4.438;2023-04-10T11:36:59;17.80;99.90
19906;DHT22;10115;50.906;4.438;2023-04-10T11:39:28;18.10;99.90
19906;DHT22;10115;50.906;4.438;2023-04-10T11:41:54;18.40;99.90
19906;DHT22;10115;50.906;4.438;2023-04-10T11:46:57;18.10;99.90
19906;DHT22;10115;50.906;4.438;2023-04-10T11:49:29;18.30;99.90
19906;DHT22;10115;50.906;4.438;2023-04-10T11:51:55;18.00;99.90
19906;DHT22;10115;50.906;4.438;2023-04-10T11:54:23;18.10;99.90
19906;DHT22;10115;50.906;4.438;2023-04-10T11:57:03;18.10;99.90
19906;DHT22;10115;50.906;4.438;2023-04-10T11:59:30;18.20;99.90
19906;DHT22;10115;50.906;4.438;2023-04-10T12:02:08;18.00;99.90
19906;DHT22;10115;50.906;4.438;2023-04-10T12:04:43;17.60;99.90
19906;DHT22;10115;50.906;4.438;2023-04-10T12:07:16;17.40;99.90
19906;DHT22;10115;50.906;4.438;2023-04-10T12:10:15;17.50;99.90
19906;DHT22;10115;50.906;4.438;2023-04-10T12:12:35;17.70;99.90
19906;DHT22;10115;50.906;4.438;2023-04-10T12:15:23;17.80;99.90
19906;DHT22;10115;50.906;4.438;2023-04-10T12:17:51;17.90;99.90
19906;DHT22;10115;50.906;4.438;2023-04-10T12:20:17;18.20;99.90
19906;DHT22;10115;50.906;4.438;2023-04-10T12:22:43;18.00;99.90
19906;DHT22;10115;50.906;4.438;2023-04-10T12:25:14;18.00;99.90
19906;DHT22;10115;50.906;4.438;2023-04-10T12:27:47;17.90;99.90
19906;DHT22;10115;50.906;4.438;2023-04-10T12:30:14;17.80;99.90
19906;DHT22;10115;50.906;4.438;2023-04-10T12:32:40;17.80;99.90
19906;DHT22;10115;50.906;4.438;2023-04-10T12:35:06;17.70;99.90
19906;DHT22;10115;50.906;4.438;2023-04-10T12:37:51;17.80;99.90
19906;DHT22;10115;50.906;4.438;2023-04-10T12:40:18;18.00;99.90
19906;DHT22;10115;50.906;4.438;2023-04-10T12:42:50;17.90;99.90
19906;DHT22;10115;50.906;4.438;2023-04-10T12:45:16;18.00;99.90
19906;DHT22;10115;50.906;4.438;2023-04-10T12:47:51;17.80;99.90
19906;DHT22;10115;50.906;4.438;2023-04-10T12:50:18;17.70;99.90
19906;DHT22;10115;50.906;4.438;2023-04-10T12:53:04;17.40;99.90
19906;DHT22;10115;50.906;4.438;2023-04-10T12:55:35;17.30;99.90
19906;DHT22;10115;50.906;4.438;2023-04-10T12:58:22;17.10;99.90
19906;DHT22;10115;50.906;4.438;2023-04-10T13:00:54;17.20;99.90
19906;DHT22;10115;50.906;4.438;2023-04-10T13:03:23;16.70;99.90
19906;DHT22;10115;50.906;4.438;2023-04-10T13:05:50;16.40;99.90
19906;DHT22;10115;50.906;4.438;2023-04-10T13:08:19;16.20;99.90
19906;DHT22;10115;50.906;4.438;2023-04-10T13:10:47;16.10;99.90
19906;DHT22;10115;50.906;4.438;2023-04-10T13:13:15;15.90;99.90
19906;DHT22;10115;50.906;4.438;2023-04-10T13:15:41;16.00;99.90
19906;DHT22;10115;50.906;4.438;2023-04-10T13:18:17;16.00;99.90
19906;DHT22;10115;50.906;4.438;2023-04-10T13:20:43;16.10;99.90
19906;DHT22;10115;50.906;4.438;2023-04-10T13:23:09;16.40;99.90
19906;DHT22;10115;50.906;4.438;2023-04-10T13:25:38;16.50;99.90
19906;DHT22;10115;50.906;4.438;2023-04-10T13:28:06;16.50;99.90
19906;DHT22;10115;50.906;4.438;2023-04-10T13:30:37;16.50;99.90
19906;DHT22;10115;50.906;4.438;2023-04-10T13:33:03;16.50;99.90
19906;DHT22;10115;50.906;4.438;2023-04-10T13:35:29;16.60;99.90
19906;DHT22;10115;50.906;4.438;2023-04-10T13:37:55;16.60;99.90
19906;DHT22;10115;50.906;4.438;2023-04-10T13:40:21;16.70;99.90
19906;DHT22;10115;50.906;4.438;2023-04-10T13:42:53;17.00;99.90
19906;DHT22;10115;50.906;4.438;2023-04-10T13:45:20;17.20;99.90
19906;DHT22;10115;50.906;4.438;2023-04-10T13:47:46;17.00;99.90
19906;DHT22;10115;50.906;4.438;2023-04-10T13:50:14;17.20;99.90
19906;DHT22;10115;50.906;4.438;2023-04-10T13:52:40;17.30;99.90
19906;DHT22;10115;50.906;4.438;2023-04-10T13:55:06;17.40;99.90
19906;DHT22;10115;50.906;4.438;2023-04-10T13:57:32;17.60;99.90
19906;DHT22;10115;50.906;4.438;2023-04-10T14:00:00;17.60;99.90
19906;DHT22;10115;50.906;4.438;2023-04-10T14:02:34;17.50;99.90
19906;DHT22;10115;50.906;4.438;2023-04-10T14:05:00;17.80;99.90
19906;DHT22;10115;50.906;4.438;2023-04-10T14:07:27;17.90;99.90
19906;DHT22;10115;50.906;4.438;2023-04-10T14:09:52;18.00;99.90
19906;DHT22;10115;50.906;4.438;2023-04-10T14:12:18;18.20;99.90
19906;DHT22;10115;50.906;4.438;2023-04-10T14:14:45;18.10;99.90
19906;DHT22;10115;50.906;4.438;2023-04-10T14:17:11;18.10;99.90
19906;DHT22;10115;50.906;4.438;2023-04-10T14:19:37;18.40;99.90
19906;DHT22;10115;50.906;4.438;2023-04-10T14:22:03;18.00;99.90
19906;DHT22;10115;50.906;4.438;2023-04-10T14:24:29;17.80;99.90
19906;DHT22;10115;50.906;4.438;2023-04-10T14:26:54;17.60;99.90
19906;DHT22;10115;50.906;4.438;2023-04-10T14:29:23;17.70;99.90
19906;DHT22;10115;50.906;4.438;2023-04-10T14:31:49;17.60;99.90
19906;DHT22;10115;50.906;4.438;2023-04-10T14:34:19;17.50;99.90
19906;DHT22;10115;50.906;4.438;2023-04-10T14:36:45;17.40;99.90
19906;DHT22;10115;50.906;4.438;2023-04-10T14:39:10;17.30;99.90
19906;DHT22;10115;50.906;4.438;2023-04-10T14:41:36;17.40;99.90
19906;DHT22;10115;50.906;4.438;2023-04-10T14:44:02;17.50;99.90
19906;DHT22;10115;50.906;4.438;2023-04-10T14:46:28;17.10;99.90
19906;DHT22;10115;50.906;4.438;2023-04-10T14:48:54;16.50;99.90
19906;DHT22;10115;50.906;4.438;2023-04-10T14:51:20;16.00;99.90
19906;DHT22;10115;50.906;4.438;2023-04-10T14:53:45;15.60;99.90
19906;DHT22;10115;50.906;4.438;2023-04-10T14:56:14;15.20;99.90
19906;DHT22;10115;50.906;4.438;2023-04-10T14:58:41;14.80;99.90
19906;DHT22;10115;50.906;4.438;2023-04-10T15:01:08;14.70;99.90
19906;DHT22;10115;50.906;4.438;2023-04-10T15:03:36;14.60;99.90
19906;DHT22;10115;50.906;4.438;2023-04-10T15:06:02;14.60;99.90
19906;DHT22;10115;50.906;4.438;2023-04-10T15:08:28;14.40;99.90
19906;DHT22;10115;50.906;4.438;2023-04-10T15:10:54;14.10;99.90
19906;DHT22;10115;50.906;4.438;2023-04-10T15:13:21;13.90;99.90
19906;DHT22;10115;50.906;4.438;2023-04-10T15:15:47;13.70;99.90
19906;DHT22;10115;50.906;4.438;2023-04-10T15:18:14;13.60;99.90
19906;DHT22;10115;50.906;4.438;2023-04-10T15:20:40;13.60;99.90
19906;DHT22;10115;50.906;4.438;2023-04-10T15:23:06;13.60;99.90
19906;DHT22;10115;50.906;4.438;2023-04-10T15:25:38;13.60;99.90
19906;DHT22;10115;50.906;4.438;2023-04-10T15:28:03;13.50;99.90
19906;DHT22;10115;50.906;4.438;2023-04-10T15:30:29;13.50;99.90
19906;DHT22;10115;50.906;4.438;2023-04-10T15:32:55;13.50;99.90
19906;DHT22;10115;50.906;4.438;2023-04-10T15:35:21;13.50;99.90
19906;DHT22;10115;50.906;4.438;2023-04-10T15:37:49;13.40;99.90
19906;DHT22;10115;50.906;4.438;2023-04-10T15:40:14;13.40;99.90
19906;DHT22;10115;50.906;4.438;2023-04-10T15:42:40;13.20;99.90
19906;DHT22;10115;50.906;4.438;2023-04-10T15:45:06;13.00;99.90
19906;DHT22;10115;50.906;4.438;2023-04-10T15:47:31;12.90;99.90
19906;DHT22;10115;50.906;4.438;2023-04-10T15:49:58;12.80;99.90
19906;DHT22;10115;50.906;4.438;2023-04-10T15:52:23;12.70;99.90
19906;DHT22;10115;50.906;4.438;2023-04-10T15:54:49;12.70;99.90
19906;DHT22;10115;50.906;4.438;2023-04-10T15:57:19;12.50;99.90
19906;DHT22;10115;50.906;4.438;2023-04-10T15:59:45;12.30;99.90
19906;DHT22;10115;50.906;4.438;2023-04-10T16:02:11;12.10;99.90
19906;DHT22;10115;50.906;4.438;2023-04-10T16:04:38;12.00;99.90
19906;DHT22;10115;50.906;4.438;2023-04-10T16:07:04;11.80;99.90
19906;DHT22;10115;50.906;4.438;2023-04-10T16:09:29;11.80;99.90
19906;DHT22;10115;50.906;4.438;2023-04-10T16:11:55;11.70;99.90
19906;DHT22;10115;50.906;4.438;2023-04-10T16:14:22;11.60;99.90
19906;DHT22;10115;50.906;4.438;2023-04-10T16:16:47;11.50;99.90
19906;DHT22;10115;50.906;4.438;2023-04-10T16:19:13;11.50;99.90
19906;DHT22;10115;50.906;4.438;2023-04-10T16:21:39;11.50;99.90